createdAt,value
2022-10-12T00:01:22.058Z,11.90
2022-10-12T00:03:48.988Z,12.00
2022-10-12T00:06:16.955Z,11.80
2022-10-12T00:08:45.242Z,11.60
2022-10-12T00:11:16.492Z,11.60
2022-10-12T00:13:43.548Z,11.70
2022-10-12T00:16:12.168Z,11.60
2022-10-12T00:18:39.184Z,11.60
2022-10-12T00:21:12.019Z,11.80
2022-10-12T00:23:39.639Z,11.70
2022-10-12T00:26:18.639Z,11.70
2022-10-12T00:28:46.173Z,11.80
2022-10-12T00:31:18.637Z,11.80
2022-10-12T00:33:46.238Z,11.80
2022-10-12T00:36:24.761Z,11.90
2022-10-12T00:38:53.239Z,11.90
2022-10-12T00:41:25.888Z,12.00
2022-10-12T00:43:57.847Z,12.00
2022-10-12T00:46:30.840Z,12.10
2022-10-12T00:49:06.463Z,12.20
2022-10-12T00:51:33.753Z,12.20
2022-10-12T00:54:06.167Z,12.20
2022-10-12T00:56:36.138Z,12.00
2022-10-12T00:59:06.885Z,11.90
2022-10-12T01:01:35.490Z,11.80
2022-10-12T01:04:03.489Z,11.80
2022-10-12T01:06:31.800Z,11.70
2022-10-12T01:08:58.813Z,11.70
2022-10-12T01:11:25.515Z,11.70
2022-10-12T01:13:52.379Z,11.80
2022-10-12T01:16:28.592Z,11.90
2022-10-12T01:19:19.622Z,12.00
2022-10-12T01:21:53.407Z,12.00
2022-10-12T01:24:41.927Z,11.90
2022-10-12T01:27:14.540Z,11.80
2022-10-12T01:30:03.980Z,11.90
2022-10-12T01:32:48.739Z,11.80
2022-10-12T01:35:30.967Z,11.70
2022-10-12T01:38:10.507Z,11.70
2022-10-12T01:40:50.621Z,11.90
2022-10-12T01:43:18.584Z,12.00
2022-10-12T01:45:45.234Z,11.90
2022-10-12T01:48:11.983Z,11.80
2022-10-12T01:50:50.387Z,12.00
2022-10-12T01:53:29.097Z,11.90
2022-10-12T01:55:55.728Z,11.80
2022-10-12T01:58:40.942Z,11.80
2022-10-12T02:01:25.125Z,11.90
2022-10-12T02:04:04.871Z,11.90
2022-10-12T02:06:49.613Z,12.00
2022-10-12T02:09:25.576Z,12.00
2022-10-12T02:11:57.146Z,12.10
2022-10-12T02:14:29.436Z,12.20
2022-10-12T02:17:00.100Z,12.20
2022-10-12T02:19:30.656Z,12.00
2022-10-12T02:22:05.698Z,12.00
2022-10-12T02:24:35.513Z,12.00
2022-10-12T02:27:03.216Z,11.90
2022-10-12T02:29:36.397Z,11.90
2022-10-12T02:32:05.044Z,11.90
2022-10-12T02:34:37.155Z,12.00
2022-10-12T02:37:14.714Z,12.00
2022-10-12T02:39:59.652Z,12.00
2022-10-12T02:43:05.729Z,11.90
2022-10-12T02:45:25.784Z,12.00
2022-10-12T02:47:55.704Z,12.20
2022-10-12T02:50:24.578Z,12.30
2022-10-12T02:52:53.067Z,12.30
2022-10-12T02:55:19.805Z,12.40
2022-10-12T02:57:46.511Z,12.40
2022-10-12T03:00:13.683Z,12.50
2022-10-12T03:02:40.363Z,12.50
2022-10-12T03:05:07.411Z,12.40
2022-10-12T03:07:34.172Z,12.50
2022-10-12T03:10:00.824Z,12.50
2022-10-12T03:12:27.653Z,12.50
2022-10-12T03:14:54.315Z,12.50
2022-10-12T03:17:20.991Z,12.50
2022-10-12T03:19:47.668Z,12.60
2022-10-12T03:22:14.326Z,12.60
2022-10-12T03:24:41.016Z,12.50
2022-10-12T03:27:07.683Z,12.50
2022-10-12T03:29:34.388Z,12.40
2022-10-12T03:32:01.029Z,12.50
2022-10-12T03:34:27.780Z,12.50
2022-10-12T03:36:54.659Z,12.50
2022-10-12T03:39:21.324Z,12.60
2022-10-12T03:41:48.000Z,12.70
2022-10-12T03:44:14.751Z,12.60
2022-10-12T03:46:41.454Z,12.60
2022-10-12T03:49:08.218Z,12.60
2022-10-12T03:51:34.891Z,12.70
2022-10-12T03:54:01.558Z,12.70
2022-10-12T03:56:28.226Z,12.60
2022-10-12T03:58:54.896Z,12.70
2022-10-12T04:01:21.649Z,12.70
2022-10-12T04:03:48.344Z,12.70
2022-10-12T04:06:15.055Z,12.50
2022-10-12T04:08:41.919Z,12.30
2022-10-12T04:11:08.826Z,12.60
2022-10-12T04:13:35.536Z,12.50
2022-10-12T04:16:06.831Z,12.60
2022-10-12T04:18:34.424Z,12.60
2022-10-12T04:21:01.989Z,12.70
2022-10-12T04:23:28.832Z,12.60
2022-10-12T04:25:55.494Z,12.70
2022-10-12T04:28:22.265Z,12.70
2022-10-12T04:30:48.943Z,12.50
2022-10-12T04:33:15.717Z,12.60
2022-10-12T04:35:42.429Z,12.60
2022-10-12T04:38:09.163Z,12.60
2022-10-12T04:40:35.888Z,12.60
2022-10-12T04:43:02.600Z,12.70
2022-10-12T04:45:29.284Z,12.70
2022-10-12T04:47:56.081Z,12.60
2022-10-12T04:50:26.316Z,12.60
2022-10-12T04:52:55.751Z,12.60
2022-10-12T04:55:22.451Z,12.70
2022-10-12T04:57:50.083Z,12.50
2022-10-12T05:00:17.342Z,12.60
2022-10-12T05:02:44.061Z,12.60
2022-10-12T05:05:10.876Z,12.60
2022-10-12T05:07:38.182Z,12.60
2022-10-12T05:10:05.480Z,12.70
2022-10-12T05:12:32.165Z,12.60
2022-10-12T05:14:58.854Z,12.70
2022-10-12T05:17:25.519Z,12.50
2022-10-12T05:19:52.203Z,12.60
2022-10-12T05:22:18.876Z,12.40
2022-10-12T05:24:48.928Z,12.20
2022-10-12T05:27:18.050Z,12.00
2022-10-12T05:29:44.827Z,12.10
2022-10-12T05:32:11.674Z,12.20
2022-10-12T05:34:38.350Z,12.30
2022-10-12T05:37:06.189Z,12.20
2022-10-12T05:39:32.885Z,12.00
2022-10-12T05:41:59.604Z,12.10
2022-10-12T05:44:26.267Z,12.00
2022-10-12T05:46:53.054Z,12.00
2022-10-12T05:49:19.782Z,12.10
2022-10-12T05:51:46.519Z,12.20
2022-10-12T05:54:13.215Z,12.30
2022-10-12T05:56:40.056Z,12.40
2022-10-12T05:59:06.955Z,12.50
2022-10-12T06:01:33.723Z,12.50
2022-10-12T06:04:00.518Z,12.50
2022-10-12T06:06:27.204Z,12.50
2022-10-12T06:08:53.939Z,12.50
2022-10-12T06:11:21.187Z,12.50
2022-10-12T06:13:47.856Z,12.50
2022-10-12T06:16:14.665Z,12.60
2022-10-12T06:18:41.573Z,12.50
2022-10-12T06:21:31.996Z,12.60
2022-10-12T06:23:54.862Z,12.60
2022-10-12T06:26:22.120Z,12.60
2022-10-12T06:28:48.856Z,12.60
2022-10-12T06:31:15.611Z,12.70
2022-10-12T06:33:42.291Z,12.70
2022-10-12T06:36:09.452Z,12.60
2022-10-12T06:38:36.318Z,12.50
2022-10-12T06:43:50.371Z,12.30
2022-10-12T06:46:17.115Z,12.30
2022-10-12T06:48:43.816Z,12.30
2022-10-12T06:51:10.523Z,12.30
2022-10-12T06:53:37.223Z,12.40
2022-10-12T06:56:11.625Z,12.40
2022-10-12T06:58:39.064Z,12.40
2022-10-12T07:01:07.802Z,12.50
2022-10-12T07:03:34.617Z,12.60
2022-10-12T07:06:13.471Z,12.50
2022-10-12T07:08:41.268Z,12.60
2022-10-12T07:11:11.394Z,12.80
2022-10-12T07:13:38.454Z,12.80
2022-10-12T07:16:05.551Z,12.70
2022-10-12T07:18:32.353Z,12.60
2022-10-12T07:21:02.915Z,12.60
2022-10-12T07:23:34.278Z,12.60
2022-10-12T07:26:01.428Z,12.80
2022-10-12T07:28:28.732Z,12.60
2022-10-12T07:30:59.845Z,12.60
2022-10-12T07:33:26.710Z,12.70
2022-10-12T07:36:12.842Z,12.90
2022-10-12T07:38:43.907Z,13.00
2022-10-12T07:41:11.448Z,13.00
2022-10-12T07:43:39.049Z,13.10
2022-10-12T07:46:06.197Z,13.00
2022-10-12T07:48:33.424Z,13.10
2022-10-12T07:51:10.656Z,13.20
2022-10-12T07:53:38.813Z,13.20
2022-10-12T07:56:09.244Z,13.20
2022-10-12T07:58:35.934Z,13.30
2022-10-12T08:01:06.575Z,13.30
2022-10-12T08:03:33.308Z,13.20
2022-10-12T08:06:00.109Z,13.40
2022-10-12T08:08:26.810Z,13.30
2022-10-12T08:10:53.510Z,13.40
2022-10-12T08:13:20.179Z,13.20
2022-10-12T08:15:50.440Z,13.20
2022-10-12T08:18:17.220Z,13.30
2022-10-12T08:20:43.990Z,13.30
2022-10-12T08:23:11.013Z,13.30
2022-10-12T08:25:38.082Z,13.40
2022-10-12T08:28:05.552Z,13.40
2022-10-12T08:30:33.823Z,13.60
2022-10-12T08:33:00.518Z,13.60
2022-10-12T08:35:27.290Z,13.40
2022-10-12T08:37:54.583Z,13.30
2022-10-12T08:40:30.578Z,13.30
2022-10-12T08:43:22.770Z,13.30
2022-10-12T08:45:53.617Z,13.40
2022-10-12T08:48:33.180Z,13.30
2022-10-12T08:51:04.041Z,13.50
2022-10-12T08:53:33.505Z,13.60
2022-10-12T08:56:01.380Z,13.70
2022-10-12T08:58:33.897Z,13.70
2022-10-12T09:01:16.753Z,13.80
2022-10-12T09:03:52.264Z,14.00
2022-10-12T09:06:30.484Z,14.00
2022-10-12T09:09:05.754Z,13.90
2022-10-12T09:12:01.118Z,14.00
2022-10-12T09:14:32.524Z,13.80
2022-10-12T09:17:01.775Z,13.80
2022-10-12T09:19:35.542Z,13.80
2022-10-12T09:22:03.610Z,13.80
2022-10-12T09:24:35.640Z,13.90
2022-10-12T09:27:14.885Z,14.10
2022-10-12T09:29:44.963Z,14.00
2022-10-12T09:32:44.535Z,14.00
2022-10-12T09:35:14.197Z,14.10
2022-10-12T09:37:41.139Z,14.00
2022-10-12T09:40:27.454Z,14.10
2022-10-12T09:42:55.903Z,14.20
2022-10-12T09:45:23.098Z,14.30
2022-10-12T09:48:09.618Z,14.20
2022-10-12T09:50:43.381Z,14.20
2022-10-12T09:53:35.090Z,14.30
2022-10-12T09:56:11.736Z,14.00
2022-10-12T09:58:52.982Z,14.00
2022-10-12T10:01:24.256Z,14.10
2022-10-12T10:04:08.802Z,14.10
2022-10-12T10:06:41.403Z,14.10
2022-10-12T10:09:29.449Z,14.20
2022-10-12T10:11:57.716Z,14.30
2022-10-12T10:14:24.796Z,14.50
2022-10-12T10:16:54.710Z,14.50
2022-10-12T10:19:25.061Z,14.60
2022-10-12T10:21:53.713Z,14.80
2022-10-12T10:24:39.583Z,15.00
2022-10-12T10:27:07.305Z,14.80
2022-10-12T10:29:41.811Z,14.70
2022-10-12T10:32:29.178Z,14.60
2022-10-12T10:35:17.378Z,14.90
2022-10-12T10:37:46.547Z,15.00
2022-10-12T10:40:33.333Z,15.00
2022-10-12T10:43:06.761Z,15.10
2022-10-12T10:45:34.466Z,15.00
2022-10-12T10:48:08.811Z,15.20
2022-10-12T10:50:39.389Z,15.30
2022-10-12T10:53:19.775Z,15.30
2022-10-12T10:56:12.815Z,15.30
2022-10-12T10:58:45.375Z,15.10
2022-10-12T11:01:20.688Z,15.00
2022-10-12T11:04:10.493Z,15.10
2022-10-12T11:06:47.064Z,15.30
2022-10-12T11:09:19.578Z,15.30
2022-10-12T11:11:53.883Z,15.40
2022-10-12T11:14:34.760Z,15.40
2022-10-12T11:17:11.485Z,15.30
2022-10-12T11:19:42.388Z,15.10
2022-10-12T11:22:36.861Z,15.30
2022-10-12T11:25:14.651Z,15.30
2022-10-12T11:27:42.281Z,15.00
2022-10-12T11:30:21.134Z,15.00
2022-10-12T11:32:54.615Z,15.20
2022-10-12T11:35:31.866Z,15.40
2022-10-12T11:38:03.022Z,15.30
2022-10-12T11:41:02.624Z,15.40
2022-10-12T11:43:32.057Z,15.40
2022-10-12T11:46:03.635Z,15.50
2022-10-12T11:48:59.756Z,15.40
2022-10-12T11:51:26.421Z,15.70
2022-10-12T11:54:06.065Z,15.90
2022-10-12T11:56:37.454Z,15.90
2022-10-12T11:59:39.076Z,15.80
2022-10-12T12:02:23.827Z,15.90
2022-10-12T12:04:51.585Z,16.00
2022-10-12T12:08:09.543Z,15.70
2022-10-12T12:10:37.069Z,15.30
2022-10-12T12:13:14.756Z,15.20
2022-10-12T12:16:13.330Z,15.40
2022-10-12T12:19:12.735Z,15.80
2022-10-12T12:22:16.864Z,15.80
2022-10-12T12:25:08.424Z,15.70
2022-10-12T12:27:54.743Z,15.80
2022-10-12T12:30:28.423Z,16.00
2022-10-12T12:32:58.598Z,16.10
2022-10-12T12:35:35.551Z,16.00
2022-10-12T12:38:17.220Z,16.00
2022-10-12T12:41:24.386Z,16.10
2022-10-12T12:43:58.328Z,16.20
2022-10-12T12:46:46.636Z,16.10
2022-10-12T12:49:38.252Z,16.30
2022-10-12T12:52:38.854Z,16.10
2022-10-12T12:55:14.450Z,16.00
2022-10-12T12:58:14.544Z,15.90
2022-10-12T13:01:13.461Z,16.00
2022-10-12T13:03:57.950Z,16.10
2022-10-12T13:06:48.836Z,15.90
2022-10-12T13:09:18.290Z,15.90
2022-10-12T13:11:45.054Z,15.80
2022-10-12T13:14:48.689Z,15.90
2022-10-12T13:17:43.519Z,16.00
2022-10-12T13:20:24.994Z,16.10
2022-10-12T13:22:55.112Z,16.20
2022-10-12T13:25:43.945Z,16.20
2022-10-12T13:28:21.769Z,16.00
2022-10-12T13:31:03.309Z,16.10
2022-10-12T13:33:54.261Z,16.20
2022-10-12T13:36:28.723Z,16.00
2022-10-12T13:38:57.691Z,15.90
2022-10-12T13:41:26.561Z,15.80
2022-10-12T13:44:01.043Z,15.70
2022-10-12T13:46:42.841Z,15.80
2022-10-12T13:49:25.254Z,16.00
2022-10-12T13:51:56.371Z,16.20
2022-10-12T13:54:26.156Z,16.40
2022-10-12T13:57:02.772Z,16.30
2022-10-12T13:59:36.107Z,16.10
2022-10-12T14:02:04.080Z,15.90
2022-10-12T14:04:33.361Z,16.00
2022-10-12T14:07:06.388Z,15.90
2022-10-12T14:09:58.660Z,15.80
2022-10-12T14:12:28.370Z,15.70
2022-10-12T14:14:55.626Z,15.80
2022-10-12T14:17:22.708Z,16.00
2022-10-12T14:19:53.010Z,15.80
2022-10-12T14:22:29.835Z,15.80
2022-10-12T14:25:08.583Z,15.80
2022-10-12T14:27:39.313Z,15.90
2022-10-12T14:30:30.846Z,15.90
2022-10-12T14:33:15.659Z,16.10
2022-10-12T14:35:47.296Z,15.80
2022-10-12T14:38:37.299Z,15.70
2022-10-12T14:41:43.200Z,15.60
2022-10-12T14:44:11.029Z,15.50
2022-10-12T14:46:40.547Z,15.40
2022-10-12T14:49:20.937Z,15.40
2022-10-12T14:51:49.552Z,15.20
2022-10-12T14:54:16.514Z,15.20
2022-10-12T14:56:43.385Z,15.20
2022-10-12T14:59:10.113Z,15.10
2022-10-12T15:01:40.980Z,15.20
2022-10-12T15:04:12.946Z,15.20
2022-10-12T15:06:40.273Z,15.30
2022-10-12T15:09:07.119Z,15.30
2022-10-12T15:11:33.892Z,15.30
2022-10-12T15:14:00.636Z,15.30
2022-10-12T15:16:29.099Z,15.30
2022-10-12T15:18:55.774Z,15.30
2022-10-12T15:21:22.460Z,15.20
2022-10-12T15:23:49.254Z,15.10
2022-10-12T15:26:17.814Z,15.00
2022-10-12T15:28:45.198Z,15.00
2022-10-12T15:31:17.910Z,15.00
2022-10-12T15:33:45.490Z,15.00
2022-10-12T15:36:12.206Z,14.90
2022-10-12T15:38:39.328Z,14.90
2022-10-12T15:41:06.601Z,14.80
2022-10-12T15:43:35.672Z,14.90
2022-10-12T15:46:05.059Z,14.90
2022-10-12T15:48:31.783Z,14.80
2022-10-12T15:50:58.478Z,14.80
2022-10-12T15:53:26.147Z,14.70
2022-10-12T15:55:54.712Z,14.60
2022-10-12T15:58:21.635Z,14.60
2022-10-12T16:00:48.537Z,14.60
2022-10-12T16:03:21.312Z,14.60
2022-10-12T16:05:51.176Z,14.60
2022-10-12T16:08:17.866Z,14.70
2022-10-12T16:10:45.540Z,14.60
2022-10-12T16:13:13.913Z,14.50
2022-10-12T16:15:41.613Z,14.60
2022-10-12T16:18:09.321Z,14.70
2022-10-12T16:20:38.085Z,14.80
2022-10-12T16:23:12.991Z,14.90
2022-10-12T16:25:39.743Z,14.90
2022-10-12T16:28:06.564Z,15.10
2022-10-12T16:30:33.401Z,15.10
2022-10-12T16:33:00.104Z,15.10
2022-10-12T16:35:26.792Z,15.20
2022-10-12T16:37:53.506Z,15.20
2022-10-12T16:40:20.368Z,15.20
2022-10-12T16:42:53.102Z,15.20
2022-10-12T16:45:24.059Z,15.20
2022-10-12T16:47:50.946Z,15.20
2022-10-12T16:50:18.918Z,15.10
2022-10-12T16:52:45.735Z,15.00
2022-10-12T16:55:12.611Z,15.00
2022-10-12T16:57:39.867Z,14.90
2022-10-12T17:00:08.670Z,14.90
2022-10-12T17:02:35.387Z,14.90
2022-10-12T17:05:02.340Z,14.80
2022-10-12T17:07:29.018Z,14.80
2022-10-12T17:09:55.831Z,14.70
2022-10-12T17:12:24.084Z,14.60
2022-10-12T17:14:51.651Z,14.60
2022-10-12T17:17:19.679Z,14.50
2022-10-12T17:19:46.404Z,14.40
2022-10-12T17:22:14.600Z,14.40
2022-10-12T17:24:42.520Z,14.40
2022-10-12T17:27:11.600Z,14.30
2022-10-12T17:29:41.299Z,14.20
2022-10-12T17:32:11.800Z,14.20
2022-10-12T17:34:41.204Z,14.10
2022-10-12T17:37:13.335Z,14.10
2022-10-12T17:39:45.642Z,14.10
2022-10-12T17:42:12.650Z,14.00
2022-10-12T17:44:39.515Z,14.00
2022-10-12T17:47:06.339Z,13.90
2022-10-12T17:49:33.163Z,13.80
2022-10-12T17:51:59.856Z,13.70
2022-10-12T17:54:26.789Z,13.60
2022-10-12T17:56:55.525Z,13.50
2022-10-12T17:59:22.851Z,13.50
2022-10-12T18:01:50.766Z,13.40
2022-10-12T18:04:18.195Z,13.30
2022-10-12T18:06:45.771Z,13.20
2022-10-12T18:09:12.921Z,13.10
2022-10-12T18:11:40.208Z,13.00
2022-10-12T18:14:09.424Z,12.80
2022-10-12T18:16:37.393Z,12.60
2022-10-12T18:19:05.999Z,12.30
2022-10-12T18:21:33.547Z,12.10
2022-10-12T18:24:16.179Z,12.10
2022-10-12T18:26:45.337Z,11.90
2022-10-12T18:29:12.070Z,11.80
2022-10-12T18:31:39.329Z,11.80
2022-10-12T18:34:06.798Z,11.90
2022-10-12T18:36:33.724Z,11.90
2022-10-12T18:39:02.348Z,11.90
2022-10-12T18:41:29.338Z,11.80
2022-10-12T18:43:58.135Z,11.70
2022-10-12T18:46:27.646Z,11.50
2022-10-12T18:48:54.421Z,11.50
2022-10-12T18:51:26.052Z,11.40
2022-10-12T18:53:53.324Z,11.20
2022-10-12T18:56:20.690Z,11.20
2022-10-12T18:58:47.747Z,11.00
2022-10-12T19:01:17.831Z,10.90
2022-10-12T19:03:44.968Z,10.90
2022-10-12T19:06:14.795Z,10.90
2022-10-12T19:08:43.498Z,10.80
2022-10-12T19:11:11.647Z,10.80
2022-10-12T19:13:39.557Z,10.70
2022-10-12T19:16:14.986Z,10.70
2022-10-12T19:18:42.403Z,10.60
2022-10-12T19:21:11.948Z,10.50
2022-10-12T19:23:39.697Z,10.50
2022-10-12T19:26:09.084Z,10.40
2022-10-12T19:28:35.951Z,10.30
2022-10-12T19:31:08.953Z,10.30
2022-10-12T19:33:35.667Z,10.30
2022-10-12T19:36:04.347Z,10.20
2022-10-12T19:38:31.432Z,10.10
2022-10-12T19:40:58.414Z,10.10
2022-10-12T19:43:25.211Z,10.10
2022-10-12T19:45:51.898Z,10.00
2022-10-12T19:48:18.749Z,10.00
2022-10-12T19:50:45.499Z,9.90
2022-10-12T19:53:12.183Z,9.90
2022-10-12T19:55:39.305Z,9.80
2022-10-12T19:58:07.390Z,9.80
2022-10-12T20:00:36.079Z,9.80
2022-10-12T20:03:04.279Z,9.80
2022-10-12T20:05:31.039Z,9.80
2022-10-12T20:07:57.735Z,9.80
2022-10-12T20:10:24.431Z,9.70
2022-10-12T20:12:51.185Z,9.60
2022-10-12T20:15:17.995Z,9.70
2022-10-12T20:17:44.679Z,9.70
2022-10-12T20:20:11.600Z,9.60
2022-10-12T20:22:38.379Z,9.40
2022-10-12T20:25:09.382Z,9.40
2022-10-12T20:27:36.864Z,9.20
2022-10-12T20:30:04.914Z,9.20
2022-10-12T20:32:31.869Z,9.20
2022-10-12T20:34:59.028Z,9.10
2022-10-12T20:37:25.891Z,9.20
2022-10-12T20:39:52.845Z,9.30
2022-10-12T20:42:22.139Z,9.30
2022-10-12T20:44:49.546Z,9.40
2022-10-12T20:47:17.780Z,9.50
2022-10-12T20:49:44.679Z,9.50
2022-10-12T20:52:11.539Z,9.50
2022-10-12T20:54:38.342Z,9.40
2022-10-12T20:57:05.668Z,9.30
2022-10-12T20:59:34.551Z,9.30
2022-10-12T21:02:01.278Z,9.20
2022-10-12T21:04:31.061Z,9.30
2022-10-12T21:06:59.297Z,9.30
2022-10-12T21:09:26.040Z,9.30
2022-10-12T21:11:54.096Z,9.30
2022-10-12T21:14:20.930Z,9.10
2022-10-12T21:16:48.141Z,9.00
2022-10-12T21:19:16.418Z,8.80
2022-10-12T21:21:44.108Z,8.80
2022-10-12T21:24:11.067Z,8.80
2022-10-12T21:26:37.760Z,8.70
2022-10-12T21:29:05.287Z,8.60
2022-10-12T21:31:33.010Z,8.50
2022-10-12T21:34:01.622Z,8.40
2022-10-12T21:36:29.731Z,8.50
2022-10-12T21:38:56.925Z,8.50
2022-10-12T21:41:26.184Z,8.40
2022-10-12T21:43:53.775Z,8.30
2022-10-12T21:46:23.663Z,8.30
2022-10-12T21:48:51.334Z,8.30
2022-10-12T21:51:19.156Z,8.30
2022-10-12T21:53:46.158Z,8.50
2022-10-12T21:56:22.555Z,8.60
2022-10-12T21:58:50.330Z,8.50
2022-10-12T22:01:19.741Z,8.50
2022-10-12T22:03:48.260Z,8.50
2022-10-12T22:06:17.379Z,8.40
2022-10-12T22:08:44.731Z,8.30
2022-10-12T22:11:13.369Z,8.50
2022-10-12T22:13:40.160Z,8.30
2022-10-12T22:16:10.314Z,8.30
2022-10-12T22:18:37.333Z,8.20
2022-10-12T22:21:15.732Z,8.10
2022-10-12T22:23:43.807Z,8.10
2022-10-12T22:26:16.367Z,8.10
2022-10-12T22:28:43.600Z,8.20
2022-10-12T22:31:11.946Z,8.00
2022-10-12T22:33:39.172Z,8.00
2022-10-12T22:36:07.116Z,8.00
2022-10-12T22:38:34.954Z,8.00
2022-10-12T22:41:16.356Z,8.00
2022-10-12T22:43:43.601Z,8.00
2022-10-12T22:46:10.673Z,8.20
2022-10-12T22:48:38.041Z,8.00
2022-10-12T22:51:06.327Z,7.90
2022-10-12T22:53:34.207Z,7.90
2022-10-12T22:56:12.522Z,7.90
2022-10-12T22:58:39.290Z,8.00
2022-10-12T23:01:11.325Z,7.90
2022-10-12T23:03:38.765Z,8.00
2022-10-12T23:06:07.301Z,8.00
2022-10-12T23:08:34.591Z,8.00
2022-10-12T23:11:05.399Z,8.10
2022-10-12T23:13:33.757Z,8.00
2022-10-12T23:16:12.335Z,8.00
2022-10-12T23:18:39.519Z,8.00
2022-10-12T23:21:08.834Z,8.00
2022-10-12T23:23:36.748Z,8.00
2022-10-12T23:26:06.771Z,7.80
2022-10-12T23:28:34.136Z,7.80
2022-10-12T23:31:06.140Z,7.80
2022-10-12T23:33:33.395Z,7.70
2022-10-12T23:36:02.508Z,7.80
2022-10-12T23:38:30.711Z,7.60
2022-10-12T23:40:58.200Z,7.60
2022-10-12T23:43:26.714Z,7.60
2022-10-12T23:45:54.487Z,7.60
2022-10-12T23:48:21.384Z,7.70
2022-10-12T23:50:48.189Z,7.60
2022-10-12T23:53:15.200Z,7.70
2022-10-12T23:55:42.145Z,7.50
2022-10-12T23:58:08.877Z,7.60
